Weather at Cherry Valley Airport

Public forecast

Using degrees Fahrenheit for public forecast. Weather courtesy of forecast.io.

Closest aviation weather report (METAR) to Cherry Valley Airport

Closest report is Pocono Mountains Municipal Airport, 15.0 nm (27.7 km) NNW. Retrieved 2021/06/13 09:53 UTC (12 minutes ago):

KMPO 130953Z AUTO 22004KT 10SM OVC005 14/14 A2994 RMK AO2 SLP135 T01440139

Closest aviation forecast (TAF) to Cherry Valley Airport

Closest forecast is Lehigh Valley International Airport, 16.1 nm (29.8 km) SSW. Retrieved 2021/06/13 06:34 UTC (4 hours ago):

TAF KABE 130531Z 1306/1406 VRB03KT P6SM OVC028 TEMPO 1309/1313 4SM -SHRA BR FM131900 19004KT P6SM BKN040 FM140100 18004KT P6SM SHRA OVC025